createdAt,value
2024-01-05T00:02:05.553Z,0.80
2024-01-05T00:04:32.358Z,0.70
2024-01-05T00:06:59.178Z,0.70
2024-01-05T00:09:25.902Z,0.70
2024-01-05T00:11:53.067Z,0.80
2024-01-05T00:14:20.281Z,0.60
2024-01-05T00:16:47.809Z,0.70
2024-01-05T00:19:14.747Z,0.70
2024-01-05T00:21:41.599Z,0.70
2024-01-05T00:24:08.465Z,0.60
2024-01-05T00:26:35.190Z,0.70
2024-01-05T00:29:03.799Z,0.68
2024-01-05T00:31:30.508Z,0.70
2024-01-05T00:33:57.574Z,0.60
2024-01-05T00:36:24.391Z,0.70
2024-01-05T00:38:51.159Z,0.70
2024-01-05T00:41:18.121Z,0.68
2024-01-05T00:43:44.771Z,0.68
2024-01-05T00:46:11.491Z,0.60
2024-01-05T00:48:38.438Z,0.60
2024-01-05T00:51:05.468Z,0.60
2024-01-05T00:53:32.278Z,0.60
2024-01-05T00:55:59.251Z,0.60
2024-01-05T00:58:26.096Z,0.68
2024-01-05T01:00:52.993Z,0.60
2024-01-05T01:03:19.954Z,0.60
2024-01-05T01:05:46.760Z,0.65
2024-01-05T01:08:16.492Z,0.50
2024-01-05T01:10:43.248Z,0.50
2024-01-05T01:13:10.046Z,0.50
2024-01-05T01:15:36.920Z,0.60
2024-01-05T01:18:04.138Z,0.50
2024-01-05T01:20:31.004Z,0.50
2024-01-05T01:22:57.785Z,0.50
2024-01-05T01:25:24.553Z,0.60
2024-01-05T01:27:51.284Z,0.50
2024-01-05T01:30:18.083Z,0.50
2024-01-05T01:32:44.932Z,0.50
2024-01-05T01:35:11.755Z,0.50
2024-01-05T01:37:38.474Z,0.50
2024-01-05T01:40:06.418Z,0.50
2024-01-05T01:42:34.387Z,0.50
2024-01-05T01:45:01.673Z,0.50
2024-01-05T01:47:29.548Z,0.50
2024-01-05T01:49:58.115Z,0.50
2024-01-05T01:52:25.857Z,0.50
2024-01-05T01:54:52.792Z,0.60
2024-01-05T01:57:20.229Z,0.40
2024-01-05T01:59:47.283Z,0.50
2024-01-05T02:02:14.774Z,0.50
2024-01-05T02:04:42.869Z,0.45
2024-01-05T02:07:10.023Z,0.50
2024-01-05T02:09:36.872Z,0.40
2024-01-05T02:12:03.945Z,0.40
2024-01-05T02:14:30.773Z,0.45
2024-01-05T02:16:57.502Z,0.45
2024-01-05T02:19:25.282Z,0.40
2024-01-05T02:21:56.011Z,0.40
2024-01-05T02:24:22.853Z,0.40
2024-01-05T02:26:49.882Z,0.40
2024-01-05T02:29:23.010Z,0.50
2024-01-05T02:31:50.686Z,0.40
2024-01-05T02:34:17.564Z,0.40
2024-01-05T02:36:45.109Z,0.50
2024-01-05T02:39:12.924Z,0.40
2024-01-05T02:41:39.749Z,0.40
2024-01-05T02:44:06.476Z,0.40
2024-01-05T02:46:34.950Z,0.40
2024-01-05T02:49:02.125Z,0.40
2024-01-05T02:51:29.045Z,0.50
2024-01-05T02:53:56.133Z,0.40
2024-01-05T02:56:24.268Z,0.50
2024-01-05T02:58:54.509Z,0.40
2024-01-05T03:01:21.488Z,0.40
2024-01-05T03:03:51.621Z,0.40
2024-01-05T03:06:20.607Z,0.50
2024-01-05T03:08:47.834Z,0.40
2024-01-05T03:11:14.696Z,0.50
2024-01-05T03:13:41.523Z,0.40
2024-01-05T03:16:08.381Z,0.40
2024-01-05T03:18:35.436Z,0.40
2024-01-05T03:21:02.410Z,0.50
2024-01-05T03:23:29.133Z,0.50
2024-01-05T03:25:58.084Z,0.40
2024-01-05T03:28:25.714Z,0.40
2024-01-05T03:30:53.402Z,0.45
2024-01-05T03:33:23.588Z,0.40
2024-01-05T03:35:50.548Z,0.40
2024-01-05T03:38:17.456Z,0.40
2024-01-05T03:40:44.322Z,0.40
2024-01-05T03:43:11.003Z,0.50
2024-01-05T03:45:37.980Z,0.40
2024-01-05T03:48:05.595Z,0.40
2024-01-05T03:50:32.434Z,0.40
2024-01-05T03:52:59.189Z,0.50
2024-01-05T03:55:25.869Z,0.40
2024-01-05T03:57:52.617Z,0.40
2024-01-05T04:00:19.605Z,0.50
2024-01-05T04:02:46.786Z,0.40
2024-01-05T04:05:13.734Z,0.40
2024-01-05T04:07:40.705Z,0.40
2024-01-05T04:10:07.992Z,0.40
2024-01-05T04:12:34.828Z,0.40
2024-01-05T04:15:01.779Z,0.40
2024-01-05T04:17:28.594Z,0.40
2024-01-05T04:19:55.388Z,0.40
2024-01-05T04:22:22.262Z,0.32
2024-01-05T04:24:49.005Z,0.40
2024-01-05T04:27:15.742Z,0.35
2024-01-05T04:29:42.479Z,0.38
2024-01-05T04:32:09.236Z,0.30
2024-01-05T04:34:36.036Z,0.40
2024-01-05T04:37:02.799Z,0.40
2024-01-05T04:39:29.613Z,0.40
2024-01-05T04:41:56.484Z,0.40
2024-01-05T04:44:23.212Z,0.40
2024-01-05T04:46:49.948Z,0.40
2024-01-05T04:49:16.825Z,0.30
2024-01-05T04:51:44.616Z,0.40
2024-01-05T04:54:11.740Z,0.30
2024-01-05T04:56:38.589Z,0.38
2024-01-05T04:59:05.397Z,0.40
2024-01-05T05:01:32.382Z,0.40
2024-01-05T05:03:59.222Z,0.40
2024-01-05T05:06:25.940Z,0.40
2024-01-05T05:08:52.898Z,0.40
2024-01-05T05:11:19.881Z,0.40
2024-01-05T05:13:47.535Z,0.40
2024-01-05T05:16:14.281Z,0.32
2024-01-05T05:18:42.956Z,0.40
2024-01-05T05:21:09.973Z,0.40
2024-01-05T05:23:38.824Z,0.40
2024-01-05T05:26:05.924Z,0.30
2024-01-05T05:28:32.821Z,0.40
2024-01-05T05:30:59.936Z,0.40
2024-01-05T05:33:28.312Z,0.40
2024-01-05T05:35:55.349Z,0.40
2024-01-05T05:38:22.076Z,0.32
2024-01-05T05:40:48.742Z,0.40
2024-01-05T05:43:15.856Z,0.30
2024-01-05T05:45:42.775Z,0.30
2024-01-05T05:48:09.652Z,0.30
2024-01-05T05:50:36.515Z,0.40
2024-01-05T05:53:03.347Z,0.35
2024-01-05T05:55:30.014Z,0.40
2024-01-05T05:57:58.715Z,0.35
2024-01-05T06:00:26.288Z,0.30
2024-01-05T06:02:53.091Z,0.32
2024-01-05T06:05:20.004Z,0.30
2024-01-05T06:07:47.028Z,0.40
2024-01-05T06:10:14.181Z,0.40
2024-01-05T06:12:41.015Z,0.40
2024-01-05T06:15:08.549Z,0.30
2024-01-05T06:17:35.458Z,0.30
2024-01-05T06:20:02.206Z,0.40
2024-01-05T06:22:28.982Z,0.40
2024-01-05T06:24:55.739Z,0.40
2024-01-05T06:27:29.080Z,0.45
2024-01-05T06:30:02.478Z,0.40
2024-01-05T06:32:29.340Z,0.47
2024-01-05T06:34:56.119Z,0.47
2024-01-05T06:37:22.858Z,0.40
2024-01-05T06:39:49.609Z,0.40
2024-01-05T06:42:16.338Z,0.40
2024-01-05T06:44:43.128Z,0.40
2024-01-05T06:47:10.029Z,0.40
2024-01-05T06:49:37.661Z,0.40
2024-01-05T06:52:04.744Z,0.40
2024-01-05T06:54:31.555Z,0.50
2024-01-05T06:56:58.386Z,0.50
2024-01-05T06:59:27.344Z,0.50
2024-01-05T07:01:54.027Z,0.50
2024-01-05T07:04:20.707Z,0.50
2024-01-05T07:06:47.437Z,0.50
2024-01-05T07:09:15.426Z,0.50
2024-01-05T07:11:42.649Z,0.50
2024-01-05T07:14:09.668Z,0.50
2024-01-05T07:16:36.464Z,0.60
2024-01-05T07:19:03.383Z,0.60
2024-01-05T07:21:30.207Z,0.50
2024-01-05T07:23:57.011Z,0.60
2024-01-05T07:26:24.035Z,0.52
2024-01-05T07:28:51.164Z,0.70
2024-01-05T07:31:26.895Z,0.63
2024-01-05T07:33:53.732Z,0.70
2024-01-05T07:36:20.672Z,0.70
2024-01-05T07:38:47.530Z,0.70
2024-01-05T07:41:18.059Z,0.80
2024-01-05T07:43:45.291Z,0.75
2024-01-05T07:46:11.992Z,0.73
2024-01-05T07:48:42.241Z,0.70
2024-01-05T07:51:10.209Z,0.80
2024-01-05T07:53:37.076Z,0.77
2024-01-05T07:56:04.485Z,0.85
2024-01-05T07:58:31.270Z,0.80
2024-01-05T08:00:58.971Z,0.80
2024-01-05T08:03:25.969Z,0.93
2024-01-05T08:05:52.877Z,1.00
2024-01-05T08:08:20.184Z,0.90
2024-01-05T08:10:47.074Z,0.90
2024-01-05T08:13:13.852Z,0.85
2024-01-05T08:15:40.697Z,0.93
2024-01-05T08:18:08.154Z,1.00
2024-01-05T08:20:35.445Z,1.10
2024-01-05T08:23:03.083Z,1.05
2024-01-05T08:25:29.972Z,1.05
2024-01-05T08:27:56.692Z,1.00
2024-01-05T08:30:23.667Z,1.00
2024-01-05T08:32:56.196Z,1.10
2024-01-05T08:35:23.220Z,1.10
2024-01-05T08:37:49.944Z,1.20
2024-01-05T08:40:18.826Z,1.02
2024-01-05T08:42:47.193Z,1.30
2024-01-05T08:45:18.121Z,1.20
2024-01-05T08:47:45.129Z,1.20
2024-01-05T08:50:12.029Z,1.15
2024-01-05T08:52:39.175Z,1.10
2024-01-05T08:55:06.680Z,1.20
2024-01-05T08:57:33.447Z,1.10
2024-01-05T09:00:00.282Z,1.25
2024-01-05T09:02:27.394Z,1.10
2024-01-05T09:04:54.195Z,1.35
2024-01-05T09:07:20.983Z,1.25
2024-01-05T09:09:47.779Z,1.23
2024-01-05T09:12:14.825Z,1.33
2024-01-05T09:14:42.401Z,1.30
2024-01-05T09:17:09.171Z,1.23
2024-01-05T09:19:36.720Z,1.20
2024-01-05T09:22:03.917Z,1.13
2024-01-05T09:24:30.886Z,1.40
2024-01-05T09:26:57.648Z,1.38
2024-01-05T09:29:24.405Z,1.30
2024-01-05T09:31:52.440Z,1.30
2024-01-05T09:34:19.431Z,1.33
2024-01-05T09:36:46.301Z,1.30
2024-01-05T09:39:13.729Z,1.30
2024-01-05T09:41:46.902Z,1.38
2024-01-05T09:44:14.050Z,1.40
2024-01-05T09:46:41.944Z,1.25
2024-01-05T09:49:10.227Z,1.40
2024-01-05T09:51:37.570Z,1.50
2024-01-05T09:54:04.652Z,1.30
2024-01-05T09:56:32.592Z,1.48
2024-01-05T09:59:00.501Z,1.30
2024-01-05T10:01:34.237Z,1.50
2024-01-05T10:04:03.206Z,1.30
2024-01-05T10:06:31.848Z,1.30
2024-01-05T10:09:02.289Z,1.40
2024-01-05T10:11:35.413Z,1.40
2024-01-05T10:14:06.784Z,1.50
2024-01-05T10:16:40.465Z,1.40
2024-01-05T10:19:16.235Z,1.40
2024-01-05T10:21:45.750Z,1.20
2024-01-05T10:24:24.587Z,1.50
2024-01-05T10:27:12.124Z,1.33
2024-01-05T10:29:44.681Z,1.40
2024-01-05T10:32:21.242Z,1.60
2024-01-05T10:34:50.815Z,1.60
2024-01-05T10:37:19.416Z,1.52
2024-01-05T10:39:52.766Z,1.40
2024-01-05T10:42:28.804Z,1.38
2024-01-05T10:44:58.101Z,1.50
2024-01-05T10:47:33.155Z,1.40
2024-01-05T10:50:00.277Z,1.30
2024-01-05T10:52:34.715Z,1.40
2024-01-05T10:55:05.497Z,1.30
2024-01-05T10:57:36.942Z,1.50
2024-01-05T11:00:06.448Z,1.27
2024-01-05T11:02:45.274Z,1.40
2024-01-05T11:05:15.457Z,1.30
2024-01-05T11:07:44.171Z,1.30
2024-01-05T11:10:35.129Z,1.40
2024-01-05T11:13:10.806Z,1.33
2024-01-05T11:15:40.651Z,1.50
2024-01-05T11:18:13.607Z,1.38
2024-01-05T11:21:04.008Z,1.38
2024-01-05T11:23:34.689Z,1.40
2024-01-05T11:26:01.591Z,1.35
2024-01-05T11:28:39.912Z,1.38
2024-01-05T11:31:06.835Z,1.50
2024-01-05T11:33:50.058Z,1.42
2024-01-05T11:36:51.110Z,1.30
2024-01-05T11:39:45.653Z,1.40
2024-01-05T11:42:34.662Z,1.35
2024-01-05T11:45:10.340Z,1.40
2024-01-05T11:47:42.104Z,1.40
2024-01-05T11:50:32.464Z,1.50
2024-01-05T11:53:18.232Z,1.40
2024-01-05T11:55:52.053Z,1.35
2024-01-05T11:58:21.436Z,1.50
2024-01-05T12:00:50.009Z,1.23
2024-01-05T12:03:18.675Z,1.42
2024-01-05T12:05:51.981Z,1.40
2024-01-05T12:08:19.495Z,1.70
2024-01-05T12:10:46.159Z,1.27
2024-01-05T12:13:12.872Z,1.60
2024-01-05T12:15:49.694Z,1.30
2024-01-05T12:18:27.984Z,1.50
2024-01-05T12:21:02.807Z,1.70
2024-01-05T12:23:32.383Z,1.48
2024-01-05T12:26:09.768Z,1.42
2024-01-05T12:28:40.942Z,1.42
2024-01-05T12:31:14.594Z,1.60
2024-01-05T12:33:43.430Z,1.70
2024-01-05T12:36:11.443Z,1.50
2024-01-05T12:38:38.727Z,1.40
2024-01-05T12:41:09.802Z,1.40
2024-01-05T12:43:54.934Z,1.70
2024-01-05T12:46:24.437Z,1.58
2024-01-05T12:48:52.090Z,1.50
2024-01-05T12:51:24.170Z,1.50
2024-01-05T12:54:04.827Z,1.60
2024-01-05T12:56:32.665Z,1.38
2024-01-05T12:58:59.737Z,1.30
2024-01-05T13:01:26.848Z,1.30
2024-01-05T13:03:55.678Z,1.40
2024-01-05T13:06:31.579Z,1.35
2024-01-05T13:08:58.859Z,1.27
2024-01-05T13:11:26.304Z,1.40
2024-01-05T13:13:54.083Z,1.20
2024-01-05T13:16:25.942Z,1.45
2024-01-05T13:18:52.797Z,1.42
2024-01-05T13:21:19.966Z,1.40
2024-01-05T13:23:48.345Z,1.58
2024-01-05T13:26:15.225Z,1.50
2024-01-05T13:28:42.312Z,1.40
2024-01-05T13:31:10.042Z,1.30
2024-01-05T13:33:37.255Z,1.42
2024-01-05T13:36:04.607Z,1.60
2024-01-05T13:38:31.533Z,1.50
2024-01-05T13:40:58.385Z,1.35
2024-01-05T13:43:26.475Z,1.45
2024-01-05T13:45:55.484Z,1.27
2024-01-05T13:48:22.832Z,1.30
2024-01-05T13:50:49.717Z,1.20
2024-01-05T13:53:16.569Z,1.20
2024-01-05T13:55:43.335Z,1.23
2024-01-05T13:58:10.307Z,1.25
2024-01-05T14:00:37.458Z,1.10
2024-01-05T14:03:05.500Z,1.20
2024-01-05T14:05:32.597Z,1.30
2024-01-05T14:08:00.532Z,1.20
2024-01-05T14:10:27.319Z,1.10
2024-01-05T14:12:54.763Z,1.05
2024-01-05T14:15:22.540Z,1.10
2024-01-05T14:17:49.500Z,1.20
2024-01-05T14:20:16.491Z,1.30
2024-01-05T14:22:43.277Z,1.10
2024-01-05T14:25:16.976Z,1.30
2024-01-05T14:27:43.699Z,1.05
2024-01-05T14:30:10.969Z,1.20
2024-01-05T14:32:38.281Z,1.08
2024-01-05T14:35:08.455Z,1.10
2024-01-05T14:37:37.998Z,1.10
2024-01-05T14:40:07.195Z,1.20
2024-01-05T14:42:34.061Z,1.20
2024-01-05T14:45:01.039Z,1.02
2024-01-05T14:47:28.410Z,1.08
2024-01-05T14:49:55.364Z,1.10
2024-01-05T14:52:22.155Z,1.10
2024-01-05T14:54:48.967Z,1.00
2024-01-05T14:57:15.864Z,1.20
2024-01-05T14:59:45.274Z,1.08
2024-01-05T15:02:11.965Z,1.10
2024-01-05T15:04:38.685Z,1.10
2024-01-05T15:07:05.510Z,1.00
2024-01-05T15:09:32.356Z,0.90
2024-01-05T15:11:59.948Z,0.90
2024-01-05T15:14:28.125Z,0.90
2024-01-05T15:16:54.871Z,0.90
2024-01-05T15:19:21.716Z,0.90
2024-01-05T15:21:48.603Z,1.00
2024-01-05T15:24:15.540Z,0.90
2024-01-05T15:26:46.816Z,0.90
2024-01-05T15:29:15.128Z,0.90
2024-01-05T15:31:42.097Z,0.93
2024-01-05T15:34:08.962Z,0.90
2024-01-05T15:36:35.929Z,0.82
2024-01-05T15:39:02.808Z,0.80
2024-01-05T15:41:29.782Z,0.82
2024-01-05T15:43:57.265Z,0.80
2024-01-05T15:46:27.701Z,0.80
2024-01-05T15:48:56.175Z,0.80
2024-01-05T15:51:26.373Z,0.90
2024-01-05T15:53:57.519Z,0.80
2024-01-05T15:56:26.461Z,0.80
2024-01-05T15:58:53.379Z,0.80
2024-01-05T16:01:20.149Z,0.80
2024-01-05T16:03:48.646Z,0.80
2024-01-05T16:06:20.333Z,0.70
2024-01-05T16:08:49.860Z,0.80
2024-01-05T16:11:16.941Z,0.85
2024-01-05T16:13:43.981Z,0.80
2024-01-05T16:16:19.256Z,0.73
2024-01-05T16:18:48.500Z,0.80
2024-01-05T16:21:21.167Z,0.80
2024-01-05T16:23:48.805Z,0.80
2024-01-05T16:26:15.822Z,0.75
2024-01-05T16:28:42.505Z,0.70
2024-01-05T16:31:09.962Z,0.80
2024-01-05T16:33:40.053Z,0.77
2024-01-05T16:36:07.866Z,0.70
2024-01-05T16:38:38.551Z,0.75
2024-01-05T16:41:10.289Z,0.80
2024-01-05T16:43:40.069Z,0.80
2024-01-05T16:46:06.828Z,0.80
2024-01-05T16:48:34.179Z,0.70
2024-01-05T16:51:01.421Z,0.70
2024-01-05T16:53:29.780Z,0.80
2024-01-05T16:55:57.402Z,0.70
2024-01-05T16:58:24.286Z,0.70
2024-01-05T17:00:51.308Z,0.70
2024-01-05T17:03:18.999Z,0.70
2024-01-05T17:05:47.713Z,0.63
2024-01-05T17:08:15.526Z,0.70
2024-01-05T17:10:42.399Z,0.70
2024-01-05T17:13:09.093Z,0.70
2024-01-05T17:15:36.114Z,0.70
2024-01-05T17:18:03.339Z,0.70
2024-01-05T17:20:30.597Z,0.70
2024-01-05T17:22:58.683Z,0.70
2024-01-05T17:25:25.581Z,0.60
2024-01-05T17:27:52.910Z,0.65
2024-01-05T17:30:19.826Z,0.60
2024-01-05T17:32:46.919Z,0.60
2024-01-05T17:35:13.918Z,0.70
2024-01-05T17:37:40.729Z,0.60
2024-01-05T17:40:08.921Z,0.60
2024-01-05T17:42:36.454Z,0.60
2024-01-05T17:45:03.916Z,0.70
2024-01-05T17:47:31.406Z,0.70
2024-01-05T17:49:59.278Z,0.60
2024-01-05T17:52:26.273Z,0.70
2024-01-05T17:54:53.698Z,0.70
2024-01-05T17:57:22.875Z,0.70
2024-01-05T17:59:51.953Z,0.60
2024-01-05T18:02:18.652Z,0.60
2024-01-05T18:04:46.661Z,0.60
2024-01-05T18:07:13.683Z,0.65
2024-01-05T18:09:42.278Z,0.57
2024-01-05T18:12:09.269Z,0.60
2024-01-05T18:14:37.099Z,0.60
2024-01-05T18:17:05.132Z,0.60
2024-01-05T18:19:32.123Z,0.60
2024-01-05T18:21:59.345Z,0.60
2024-01-05T18:24:26.164Z,0.60
2024-01-05T18:26:52.878Z,0.60
2024-01-05T18:29:25.340Z,0.60
2024-01-05T18:31:58.570Z,0.60
2024-01-05T18:34:26.993Z,0.50
2024-01-05T18:36:54.368Z,0.60
2024-01-05T18:39:21.438Z,0.60
2024-01-05T18:41:48.228Z,0.55
2024-01-05T18:44:15.683Z,0.60
2024-01-05T18:46:43.034Z,0.60
2024-01-05T18:49:11.476Z,0.50
2024-01-05T18:51:38.460Z,0.60
2024-01-05T18:54:05.851Z,0.50
2024-01-05T18:56:33.828Z,0.60
2024-01-05T18:59:00.801Z,0.60
2024-01-05T19:01:27.708Z,0.60
2024-01-05T19:03:54.578Z,0.60
2024-01-05T19:06:22.034Z,0.60
2024-01-05T19:08:48.934Z,0.50
2024-01-05T19:11:15.882Z,0.50
2024-01-05T19:13:43.635Z,0.50
2024-01-05T19:16:10.750Z,0.50
2024-01-05T19:18:37.824Z,0.50
2024-01-05T19:21:06.005Z,0.55
2024-01-05T19:23:32.860Z,0.50
2024-01-05T19:25:59.991Z,0.50
2024-01-05T19:28:28.059Z,0.60
2024-01-05T19:30:55.836Z,0.50
2024-01-05T19:33:23.078Z,0.55
2024-01-05T19:35:50.162Z,0.60
2024-01-05T19:38:17.260Z,0.50
2024-01-05T19:40:45.045Z,0.50
2024-01-05T19:43:12.567Z,0.50
2024-01-05T19:45:39.563Z,0.50
2024-01-05T19:48:07.249Z,0.55
2024-01-05T19:50:35.263Z,0.50
2024-01-05T19:53:03.049Z,0.60
2024-01-05T19:55:30.364Z,0.50
2024-01-05T19:57:57.140Z,0.50
2024-01-05T20:00:24.523Z,0.50
2024-01-05T20:02:51.376Z,0.50
2024-01-05T20:05:18.138Z,0.50
2024-01-05T20:07:45.035Z,0.50
2024-01-05T20:10:12.171Z,0.50
2024-01-05T20:12:44.369Z,0.50
2024-01-05T20:15:11.295Z,0.50
2024-01-05T20:17:38.027Z,0.50
2024-01-05T20:20:05.663Z,0.50
2024-01-05T20:22:32.913Z,0.55
2024-01-05T20:24:59.734Z,0.60
2024-01-05T20:27:37.129Z,0.50
2024-01-05T20:30:05.117Z,0.50
2024-01-05T20:32:31.949Z,0.50
2024-01-05T20:34:58.755Z,0.50
2024-01-05T20:37:25.467Z,0.55
2024-01-05T20:39:52.264Z,0.50
2024-01-05T20:42:19.138Z,0.50
2024-01-05T20:44:45.871Z,0.50
2024-01-05T20:47:12.596Z,0.50
2024-01-05T20:49:39.400Z,0.50
2024-01-05T20:52:06.473Z,0.50
2024-01-05T20:54:33.172Z,0.50
2024-01-05T20:56:59.877Z,0.50
2024-01-05T20:59:26.688Z,0.60
2024-01-05T21:01:53.888Z,0.50
2024-01-05T21:04:21.603Z,0.50
2024-01-05T21:06:49.353Z,0.50
2024-01-05T21:09:16.572Z,0.50
2024-01-05T21:11:43.354Z,0.50
2024-01-05T21:14:10.041Z,0.50
2024-01-05T21:16:40.996Z,0.50
2024-01-05T21:19:08.851Z,0.50
2024-01-05T21:21:44.231Z,0.50
2024-01-05T21:24:11.057Z,0.50
2024-01-05T21:26:46.924Z,0.60
2024-01-05T21:29:15.753Z,0.50
2024-01-05T21:31:49.726Z,0.50
2024-01-05T21:34:17.436Z,0.50
2024-01-05T21:36:44.552Z,0.50
2024-01-05T21:39:11.473Z,0.50
2024-01-05T21:41:40.605Z,0.50
2024-01-05T21:44:07.912Z,0.50
2024-01-05T21:46:38.053Z,0.50
2024-01-05T21:49:05.590Z,0.60
2024-01-05T21:51:32.417Z,0.50
2024-01-05T21:53:59.435Z,0.50
2024-01-05T21:56:26.339Z,0.50
2024-01-05T21:58:53.225Z,0.50
2024-01-05T22:01:20.059Z,0.50
2024-01-05T22:03:46.924Z,0.55
2024-01-05T22:06:16.982Z,0.50
2024-01-05T22:08:43.722Z,0.50
2024-01-05T22:11:10.464Z,0.50
2024-01-05T22:13:37.244Z,0.50
2024-01-05T22:16:04.106Z,0.50
2024-01-05T22:18:34.435Z,0.60
2024-01-05T22:21:10.290Z,0.50
2024-01-05T22:23:41.314Z,0.60
2024-01-05T22:26:08.956Z,0.50
2024-01-05T22:28:38.513Z,0.55
2024-01-05T22:31:11.584Z,0.50
2024-01-05T22:33:41.755Z,0.60
2024-01-05T22:36:15.836Z,0.60
2024-01-05T22:38:42.548Z,0.50
2024-01-05T22:41:10.784Z,0.57
2024-01-05T22:43:38.797Z,0.50
2024-01-05T22:46:05.931Z,0.60
2024-01-05T22:48:36.033Z,0.50
2024-01-05T22:51:03.673Z,0.60
2024-01-05T22:53:30.680Z,0.60
2024-01-05T22:55:57.504Z,0.50
2024-01-05T22:58:24.254Z,0.50
2024-01-05T23:00:51.063Z,0.50
2024-01-05T23:03:17.993Z,0.50
2024-01-05T23:05:44.753Z,0.57
2024-01-05T23:08:11.684Z,0.50
2024-01-05T23:10:38.454Z,0.50
2024-01-05T23:13:05.812Z,0.50
2024-01-05T23:15:36.144Z,0.50
2024-01-05T23:18:03.195Z,0.55
2024-01-05T23:20:31.566Z,0.60
2024-01-05T23:22:58.422Z,0.60
2024-01-05T23:25:25.085Z,0.60
2024-01-05T23:27:51.899Z,0.60
2024-01-05T23:30:18.916Z,0.50
2024-01-05T23:32:45.818Z,0.50
2024-01-05T23:35:13.454Z,0.50
2024-01-05T23:37:40.182Z,0.50
2024-01-05T23:40:07.573Z,0.50
2024-01-05T23:42:34.344Z,0.57
2024-01-05T23:45:01.052Z,0.50
2024-01-05T23:47:27.938Z,0.50
2024-01-05T23:49:55.899Z,0.60
2024-01-05T23:52:22.830Z,0.50
2024-01-05T23:54:49.711Z,0.50
2024-01-05T23:57:16.544Z,0.60
2024-01-05T23:59:56.909Z,0.50
